Terminal Aerodrome Forecast
Issued by NWS

Home | Current Version | Previous Version | Text Only | Print | Product List | Glossary On
Versions: 1 2 3 4 5 6 7 8 9 10 11 12 13 14 15
000
FTUS45 KABQ 301700
TAFTCC
TAF
KTCC 301728Z 3018/3118 22006KT P6SM -RA SCT035 OVC050
     FM302000 16008KT 5SM -RA BR OVC015
     FM310100 14006KT 1SM -RA BR SCT002 BKN007
     FM310400 VRB04KT 5SM -RASN OVC010=

USA.gov is the U.S. government's official web portal to all federal, state and local government web resources and services.